createdAt,value
2017-05-08T00:00:45.083Z,12.1
2017-05-08T00:01:44.772Z,12.02
2017-05-08T00:02:45.321Z,11.99
2017-05-08T00:03:45.066Z,12.1
2017-05-08T00:04:45.100Z,12.02
2017-05-08T00:05:44.747Z,11.99
2017-05-08T00:06:45.040Z,11.99
2017-05-08T00:07:45.038Z,11.99
2017-05-08T00:08:45.028Z,12.07
2017-05-08T00:09:45.023Z,11.95
2017-05-08T00:10:45.015Z,12.04
2017-05-08T00:11:44.703Z,11.96
2017-05-08T00:12:44.997Z,12.01
2017-05-08T00:13:45.033Z,11.96
2017-05-08T00:14:44.984Z,11.96
2017-05-08T00:15:44.978Z,11.98
2017-05-08T00:16:44.973Z,11.91
2017-05-08T00:17:44.964Z,12.01
2017-05-08T00:18:44.958Z,12.01
2017-05-08T00:19:44.646Z,11.86
2017-05-08T00:20:44.942Z,11.95
2017-05-08T00:21:44.937Z,11.95
2017-05-08T00:22:44.929Z,11.99
2017-05-08T00:23:44.924Z,11.91
2017-05-08T00:24:44.914Z,11.99
2017-05-08T00:25:44.907Z,11.95
2017-05-08T00:26:44.597Z,11.9
2017-05-08T00:27:44.897Z,11.83
2017-05-08T00:28:44.884Z,11.88
2017-05-08T00:29:44.882Z,11.88
2017-05-08T00:30:44.915Z,11.88
2017-05-08T00:31:44.865Z,11.8
2017-05-08T00:32:44.859Z,11.88
2017-05-08T00:33:44.854Z,11.85
2017-05-08T00:34:44.841Z,11.72
2017-05-08T00:35:44.833Z,11.76
2017-05-08T00:36:44.830Z,11.83
2017-05-08T00:37:44.825Z,11.79
2017-05-08T00:38:44.826Z,11.72
2017-05-08T00:39:44.810Z,11.72
2017-05-08T00:40:44.799Z,11.76
2017-05-08T00:41:44.793Z,11.7
2017-05-08T00:42:44.786Z,11.72
2017-05-08T00:43:44.781Z,11.67
2017-05-08T00:44:44.774Z,11.62
2017-05-08T00:45:44.765Z,11.6
2017-05-08T00:46:44.755Z,11.61
2017-05-08T00:47:45.052Z,11.58
2017-05-08T00:48:44.743Z,11.51
2017-05-08T00:49:44.739Z,11.54
2017-05-08T00:50:44.724Z,11.49
2017-05-08T00:51:44.721Z,11.58
2017-05-08T00:52:44.716Z,11.42
2017-05-08T00:53:44.710Z,11.39
2017-05-08T00:54:44.702Z,11.4
2017-05-08T00:55:44.388Z,11.32
2017-05-08T00:56:44.685Z,11.32
2017-05-08T00:57:44.675Z,11.29
2017-05-08T00:58:44.673Z,11.27
2017-05-08T00:59:44.662Z,11.25
2017-05-08T01:00:44.664Z,11.25
2017-05-08T01:01:44.343Z,11.27
2017-05-08T01:02:44.637Z,11.28
2017-05-08T01:03:44.629Z,11.24
2017-05-08T01:04:44.664Z,11.28
2017-05-08T01:05:44.618Z,11.32
2017-05-08T01:06:44.609Z,11.17
2017-05-08T01:07:44.303Z,11.19
2017-05-08T01:08:44.598Z,11.09
2017-05-08T01:09:44.586Z,11.07
2017-05-08T01:10:44.582Z,11.14
2017-05-08T01:11:44.570Z,11.09
2017-05-08T01:12:44.564Z,11
2017-05-08T01:13:44.557Z,10.96
2017-05-08T01:14:44.549Z,10.91
2017-05-08T01:15:44.540Z,10.88
2017-05-08T01:16:44.263Z,10.88
2017-05-08T01:17:44.525Z,10.78
2017-05-08T01:18:44.520Z,10.78
2017-05-08T01:19:44.510Z,10.71
2017-05-08T01:20:44.502Z,10.7
2017-05-08T01:21:44.498Z,10.78
2017-05-08T01:22:44.488Z,10.66
2017-05-08T01:23:44.479Z,10.68
2017-05-08T01:24:44.472Z,10.6
2017-05-08T01:25:44.464Z,10.55
2017-05-08T01:26:44.457Z,10.6
2017-05-08T01:27:44.447Z,10.63
2017-05-08T01:28:44.446Z,10.56
2017-05-08T01:29:44.435Z,10.55
2017-05-08T01:30:44.423Z,10.6
2017-05-08T01:31:44.416Z,10.59
2017-05-08T01:32:44.410Z,10.47
2017-05-08T01:33:44.398Z,10.48
2017-05-08T01:34:44.391Z,10.53
2017-05-08T01:35:44.117Z,10.47
2017-05-08T01:36:44.376Z,10.47
2017-05-08T01:37:44.378Z,10.61
2017-05-08T01:38:44.362Z,10.56
2017-05-08T01:39:44.358Z,10.55
2017-05-08T01:40:44.347Z,10.47
2017-05-08T01:41:44.337Z,10.56
2017-05-08T01:42:44.027Z,10.59
2017-05-08T01:43:44.024Z,10.59
2017-05-08T01:44:44.312Z,10.55
2017-05-08T01:45:44.304Z,10.55
2017-05-08T01:46:44.296Z,10.6
2017-05-08T01:47:44.291Z,10.67
2017-05-08T01:48:44.283Z,10.67
2017-05-08T01:49:44.276Z,10.64
2017-05-08T01:50:44.273Z,10.7
2017-05-08T01:51:44.261Z,10.66
2017-05-08T01:52:44.291Z,10.67
2017-05-08T01:53:44.248Z,10.7
2017-05-08T01:54:43.931Z,10.67
2017-05-08T01:55:46.653Z,10.76
2017-05-08T01:56:44.219Z,10.68
2017-05-08T01:57:44.214Z,10.76
2017-05-08T01:58:44.207Z,10.68
2017-05-08T01:59:44.194Z,10.63
2017-05-08T02:00:44.183Z,10.64
2017-05-08T02:01:44.178Z,10.74
2017-05-08T02:02:44.171Z,10.71
2017-05-08T02:03:44.162Z,10.64
2017-05-08T02:04:44.163Z,10.64
2017-05-08T02:05:44.147Z,10.68
2017-05-08T02:06:44.139Z,10.67
2017-05-08T02:07:44.128Z,10.66
2017-05-08T02:08:44.123Z,10.64
2017-05-08T02:09:44.114Z,10.64
2017-05-08T02:10:44.104Z,10.66
2017-05-08T02:11:44.097Z,10.67
2017-05-08T02:12:44.093Z,10.67
2017-05-08T02:13:44.092Z,10.68
2017-05-08T02:14:44.072Z,10.64
2017-05-08T02:15:44.065Z,10.64
2017-05-08T02:16:44.058Z,10.64
2017-05-08T02:17:44.053Z,10.71
2017-05-08T02:18:44.044Z,10.74
2017-05-08T02:19:44.037Z,10.82
2017-05-08T02:20:44.029Z,10.82
2017-05-08T02:21:44.017Z,10.81
2017-05-08T02:22:44.008Z,10.81
2017-05-08T02:23:44.002Z,10.85
2017-05-08T02:24:43.994Z,10.89
2017-05-08T02:25:43.984Z,10.85
2017-05-08T02:26:44.013Z,10.89
2017-05-08T02:27:43.975Z,10.91
2017-05-08T02:28:43.966Z,10.92
2017-05-08T02:29:43.961Z,10.91
2017-05-08T02:30:43.949Z,10.86
2017-05-08T02:31:43.940Z,10.91
2017-05-08T02:32:43.933Z,10.97
2017-05-08T02:33:43.920Z,10.88
2017-05-08T02:34:43.919Z,10.86
2017-05-08T02:35:43.905Z,10.85
2017-05-08T02:36:43.926Z,10.86
2017-05-08T02:37:43.895Z,10.84
2017-05-08T02:38:43.887Z,10.89
2017-05-08T02:39:43.878Z,10.92
2017-05-08T02:40:43.868Z,10.84
2017-05-08T02:41:43.859Z,10.88
2017-05-08T02:42:43.854Z,10.91
2017-05-08T02:43:43.886Z,10.92
2017-05-08T02:44:43.837Z,10.91
2017-05-08T02:45:43.828Z,10.89
2017-05-08T02:46:43.818Z,10.89
2017-05-08T02:47:43.816Z,10.89
2017-05-08T02:48:43.810Z,10.79
2017-05-08T02:49:43.800Z,10.81
2017-05-08T02:50:43.794Z,10.7
2017-05-08T02:51:43.782Z,10.7
2017-05-08T02:52:43.776Z,10.7
2017-05-08T02:53:43.770Z,10.71
2017-05-08T02:54:43.756Z,10.74
2017-05-08T02:55:43.751Z,10.79
2017-05-08T02:56:43.742Z,10.74
2017-05-08T02:57:43.744Z,10.74
2017-05-08T02:58:43.728Z,10.7
2017-05-08T02:59:43.719Z,10.74
2017-05-08T03:00:43.712Z,10.74
2017-05-08T03:01:43.701Z,10.71
2017-05-08T03:02:43.695Z,10.74
2017-05-08T03:03:43.688Z,10.73
2017-05-08T03:04:43.685Z,10.73
2017-05-08T03:05:43.669Z,10.74
2017-05-08T03:06:43.358Z,10.78
2017-05-08T03:07:43.656Z,10.68
2017-05-08T03:08:43.648Z,10.81
2017-05-08T03:09:43.643Z,10.7
2017-05-08T03:10:43.631Z,10.76
2017-05-08T03:11:43.621Z,10.73
2017-05-08T03:12:43.622Z,10.71
2017-05-08T03:13:43.608Z,10.73
2017-05-08T03:14:43.622Z,10.79
2017-05-08T03:15:43.597Z,10.7
2017-05-08T03:16:43.583Z,10.68
2017-05-08T03:17:43.574Z,10.67
2017-05-08T03:18:43.566Z,10.71
2017-05-08T03:19:43.261Z,10.81
2017-05-08T03:20:43.553Z,10.63
2017-05-08T03:21:43.543Z,10.74
2017-05-08T03:22:43.539Z,10.66
2017-05-08T03:23:43.224Z,10.81
2017-05-08T03:24:43.524Z,10.79
2017-05-08T03:25:43.513Z,10.76
2017-05-08T03:26:43.508Z,10.78
2017-05-08T03:27:43.504Z,10.73
2017-05-08T03:28:43.488Z,10.71
2017-05-08T03:29:43.179Z,10.74
2017-05-08T03:30:43.478Z,10.74
2017-05-08T03:31:42.858Z,10.82
2017-05-08T03:32:43.456Z,10.84
2017-05-08T03:33:43.449Z,10.82
2017-05-08T03:34:43.441Z,10.84
2017-05-08T03:35:43.131Z,10.89
2017-05-08T03:36:43.429Z,10.89
2017-05-08T03:37:43.419Z,10.88
2017-05-08T03:38:43.409Z,10.89
2017-05-08T03:39:43.402Z,10.91
2017-05-08T03:40:43.394Z,10.91
2017-05-08T03:41:43.387Z,10.88
2017-05-08T03:42:43.377Z,10.92
2017-05-08T03:43:43.369Z,10.96
2017-05-08T03:44:43.362Z,11
2017-05-08T03:45:43.357Z,11.03
2017-05-08T03:46:43.346Z,11.06
2017-05-08T03:47:43.340Z,11.07
2017-05-08T03:48:43.029Z,11.04
2017-05-08T03:49:43.324Z,11.1
2017-05-08T03:50:43.317Z,11.17
2017-05-08T03:51:43.307Z,11.07
2017-05-08T03:52:43.300Z,11.06
2017-05-08T03:53:43.295Z,11.21
2017-05-08T03:54:43.285Z,11.17
2017-05-08T03:55:42.974Z,11.22
2017-05-08T03:56:42.965Z,11.27
2017-05-08T03:57:42.958Z,11.28
2017-05-08T03:58:42.951Z,11.25
2017-05-08T03:59:42.944Z,11.27
2017-05-08T04:00:43.242Z,11.24
2017-05-08T04:01:42.928Z,11.27
2017-05-08T04:02:43.228Z,11.4
2017-05-08T04:03:43.218Z,11.43
2017-05-08T04:04:43.207Z,11.42
2017-05-08T04:05:43.202Z,11.46
2017-05-08T04:06:43.191Z,11.46
2017-05-08T04:07:43.189Z,11.52
2017-05-08T04:08:43.182Z,11.49
2017-05-08T04:09:43.174Z,11.58
2017-05-08T04:10:43.160Z,11.54
2017-05-08T04:11:43.155Z,11.54
2017-05-08T04:12:43.154Z,11.64
2017-05-08T04:13:43.141Z,11.62
2017-05-08T04:14:43.135Z,11.64
2017-05-08T04:15:43.125Z,11.69
2017-05-08T04:16:43.156Z,11.72
2017-05-08T04:17:43.110Z,11.67
2017-05-08T04:18:43.102Z,11.79
2017-05-08T04:19:43.094Z,11.78
2017-05-08T04:20:43.087Z,11.85
2017-05-08T04:21:43.081Z,11.82
2017-05-08T04:22:43.073Z,11.85
2017-05-08T04:23:43.072Z,11.95
2017-05-08T04:24:43.057Z,11.99
2017-05-08T04:25:43.052Z,11.99
2017-05-08T04:26:43.040Z,12.04
2017-05-08T04:27:43.037Z,12.07
2017-05-08T04:28:43.040Z,12.04
2017-05-08T04:29:43.021Z,12.02
2017-05-08T04:30:43.011Z,12.17
2017-05-08T04:31:43.007Z,12.12
2017-05-08T04:32:43.002Z,12.19
2017-05-08T04:33:42.993Z,12.16
2017-05-08T04:34:42.984Z,12.16
2017-05-08T04:35:42.679Z,12.19
2017-05-08T04:36:42.969Z,12.16
2017-05-08T04:37:42.664Z,12.23
2017-05-08T04:38:42.955Z,12.29
2017-05-08T04:39:42.949Z,12.32
2017-05-08T04:40:42.946Z,12.37
2017-05-08T04:41:42.935Z,12.42
2017-05-08T04:42:42.928Z,12.41
2017-05-08T04:43:42.922Z,12.46
2017-05-08T04:44:42.912Z,12.39
2017-05-08T04:45:42.906Z,12.41
2017-05-08T04:46:42.899Z,12.49
2017-05-08T04:47:42.592Z,12.46
2017-05-08T04:48:42.890Z,12.46
2017-05-08T04:49:42.879Z,12.5
2017-05-08T04:50:42.870Z,12.52
2017-05-08T04:51:42.862Z,12.54
2017-05-08T04:52:42.557Z,12.6
2017-05-08T04:53:42.859Z,12.59
2017-05-08T04:54:42.842Z,12.67
2017-05-08T04:55:42.235Z,12.6
2017-05-08T04:56:42.828Z,12.71
2017-05-08T04:57:42.824Z,12.7
2017-05-08T04:58:43.077Z,12.7
2017-05-08T04:59:42.814Z,12.74
2017-05-08T05:00:42.506Z,12.75
2017-05-08T05:01:42.494Z,12.77
2017-05-08T05:02:42.800Z,12.74
2017-05-08T05:03:42.784Z,12.78
2017-05-08T05:04:42.778Z,12.86
2017-05-08T05:05:42.772Z,12.79
2017-05-08T05:06:42.764Z,12.87
2017-05-08T05:07:42.756Z,12.89
2017-05-08T05:08:42.749Z,12.82
2017-05-08T05:09:42.440Z,12.86
2017-05-08T05:10:42.737Z,12.87
2017-05-08T05:11:42.729Z,12.82
2017-05-08T05:12:42.420Z,12.87
2017-05-08T05:13:42.717Z,12.82
2017-05-08T05:14:42.710Z,12.82
2017-05-08T05:15:42.702Z,12.79
2017-05-08T05:16:42.700Z,12.79
2017-05-08T05:17:42.695Z,12.74
2017-05-08T05:18:42.683Z,12.71
2017-05-08T05:19:42.686Z,12.72
2017-05-08T05:20:42.677Z,12.7
2017-05-08T05:21:42.662Z,12.68
2017-05-08T05:22:42.694Z,12.72
2017-05-08T05:23:42.353Z,12.7
2017-05-08T05:24:42.643Z,12.72
2017-05-08T05:25:42.637Z,12.75
2017-05-08T05:26:42.331Z,12.7
2017-05-08T05:27:42.625Z,12.68
2017-05-08T05:28:42.314Z,12.68
2017-05-08T05:29:42.613Z,12.67
2017-05-08T05:30:42.604Z,12.56
2017-05-08T05:31:42.632Z,12.57
2017-05-08T05:32:42.591Z,12.53
2017-05-08T05:33:42.583Z,12.47
2017-05-08T05:34:42.578Z,12.45
2017-05-08T05:35:42.570Z,12.46
2017-05-08T05:36:42.562Z,12.38
2017-05-08T05:37:42.556Z,12.42
2017-05-08T05:38:42.552Z,12.42
2017-05-08T05:39:42.240Z,12.38
2017-05-08T05:40:42.237Z,12.37
2017-05-08T05:41:42.230Z,12.37
2017-05-08T05:42:42.526Z,12.46
2017-05-08T05:43:42.519Z,12.46
2017-05-08T05:44:42.508Z,12.47
2017-05-08T05:45:42.504Z,12.49
2017-05-08T05:46:42.192Z,12.5
2017-05-08T05:47:42.488Z,12.46
2017-05-08T05:48:42.483Z,12.41
2017-05-08T05:49:42.474Z,12.47
2017-05-08T05:50:42.474Z,12.47
2017-05-08T05:51:42.159Z,12.47
2017-05-08T05:52:42.480Z,12.54
2017-05-08T05:53:42.448Z,12.52
2017-05-08T05:54:42.443Z,12.53
2017-05-08T05:55:42.443Z,12.54
2017-05-08T05:56:42.425Z,12.57
2017-05-08T05:57:42.421Z,12.53
2017-05-08T05:58:42.413Z,12.6
2017-05-08T05:59:42.407Z,12.6
2017-05-08T06:00:42.100Z,12.57
2017-05-08T06:01:42.406Z,12.56
2017-05-08T06:02:42.391Z,12.52
2017-05-08T06:03:42.078Z,12.5
2017-05-08T06:04:42.371Z,12.47
2017-05-08T06:05:42.369Z,12.41
2017-05-08T06:06:42.363Z,12.46
2017-05-08T06:07:42.356Z,12.47
2017-05-08T06:08:42.345Z,12.42
2017-05-08T06:09:42.337Z,12.39
2017-05-08T06:10:42.030Z,12.38
2017-05-08T06:11:42.323Z,12.42
2017-05-08T06:12:42.321Z,12.39
2017-05-08T06:13:42.308Z,12.42
2017-05-08T06:14:42.305Z,12.42
2017-05-08T06:15:42.297Z,12.46
2017-05-08T06:16:41.987Z,12.47
2017-05-08T06:17:42.281Z,12.5
2017-05-08T06:18:42.280Z,12.47
2017-05-08T06:19:42.273Z,12.42
2017-05-08T06:20:42.266Z,12.45
2017-05-08T06:21:42.256Z,12.32
2017-05-08T06:22:42.253Z,12.32
2017-05-08T06:23:41.942Z,12.28
2017-05-08T06:24:42.236Z,12.37
2017-05-08T06:25:42.234Z,12.27
2017-05-08T06:26:42.222Z,12.24
2017-05-08T06:27:42.214Z,12.14
2017-05-08T06:28:42.212Z,12.24
2017-05-08T06:29:42.206Z,12.13
2017-05-08T06:30:42.194Z,12.1
2017-05-08T06:31:42.187Z,12.09
2017-05-08T06:32:42.186Z,12.02
2017-05-08T06:33:42.174Z,12.09
2017-05-08T06:34:41.564Z,12.02
2017-05-08T06:35:42.170Z,12.16
2017-05-08T06:36:42.154Z,12.2
2017-05-08T06:37:42.161Z,12.2
2017-05-08T06:38:42.143Z,12.29
2017-05-08T06:39:42.136Z,12.24
2017-05-08T06:40:42.129Z,12.32
2017-05-08T06:41:42.122Z,12.28
2017-05-08T06:42:41.822Z,12.38
2017-05-08T06:43:42.153Z,12.34
2017-05-08T06:44:41.798Z,12.46
2017-05-08T06:45:42.094Z,12.45
2017-05-08T06:46:42.089Z,12.47
2017-05-08T06:47:42.082Z,12.47
2017-05-08T06:48:42.078Z,12.47
2017-05-08T06:49:42.075Z,12.59
2017-05-08T06:50:41.760Z,12.52
2017-05-08T06:51:42.056Z,12.65
2017-05-08T06:52:42.053Z,12.74
2017-05-08T06:53:42.044Z,12.67
2017-05-08T06:54:42.037Z,12.75
2017-05-08T06:55:42.029Z,12.75
2017-05-08T06:56:42.023Z,12.85
2017-05-08T06:57:42.017Z,12.97
2017-05-08T06:58:42.017Z,13
2017-05-08T06:59:42.013Z,13.03
2017-05-08T07:00:42.003Z,13.04
2017-05-08T07:01:41.995Z,13.12
2017-05-08T07:02:41.992Z,13.14
2017-05-08T07:03:41.980Z,13.33
2017-05-08T07:04:41.977Z,13.32
2017-05-08T07:05:41.978Z,13.45
2017-05-08T07:06:41.666Z,13.55
2017-05-08T07:07:41.958Z,13.63
2017-05-08T07:08:41.955Z,13.62
2017-05-08T07:09:41.644Z,13.69
2017-05-08T07:10:41.942Z,13.69
2017-05-08T07:11:41.938Z,13.77
2017-05-08T07:12:41.929Z,13.79
2017-05-08T07:13:41.923Z,13.77
2017-05-08T07:14:41.916Z,13.87
2017-05-08T07:15:41.909Z,13.85
2017-05-08T07:16:41.904Z,13.84
2017-05-08T07:17:41.898Z,13.85
2017-05-08T07:18:41.893Z,13.75
2017-05-08T07:19:41.592Z,13.77
2017-05-08T07:20:41.884Z,13.71
2017-05-08T07:21:41.879Z,13.66
2017-05-08T07:22:41.871Z,13.71
2017-05-08T07:23:41.865Z,13.57
2017-05-08T07:24:41.858Z,13.52
2017-05-08T07:25:41.855Z,13.63
2017-05-08T07:26:41.846Z,13.52
2017-05-08T07:27:41.844Z,13.42
2017-05-08T07:28:41.835Z,13.36
2017-05-08T07:29:41.527Z,13.33
2017-05-08T07:30:41.826Z,13.23
2017-05-08T07:31:41.819Z,13.3
2017-05-08T07:32:41.811Z,13.22
2017-05-08T07:33:41.805Z,13.26
2017-05-08T07:34:41.496Z,13.25
2017-05-08T07:35:41.793Z,13.25
2017-05-08T07:36:41.787Z,13.23
2017-05-08T07:37:41.783Z,13.25
2017-05-08T07:38:41.776Z,13.29
2017-05-08T07:39:41.466Z,13.36
2017-05-08T07:40:41.463Z,13.44
2017-05-08T07:41:41.452Z,13.59
2017-05-08T07:42:41.750Z,13.52
2017-05-08T07:43:41.745Z,13.63
2017-05-08T07:44:41.745Z,13.6
2017-05-08T07:45:41.429Z,13.6
2017-05-08T07:46:41.422Z,13.73
2017-05-08T07:47:41.720Z,13.79
2017-05-08T07:48:41.409Z,13.89
2017-05-08T07:49:41.710Z,14
2017-05-08T07:50:41.704Z,14.22
2017-05-08T07:51:41.393Z,14.33
2017-05-08T07:52:41.692Z,14.55
2017-05-08T07:53:41.688Z,14.83
2017-05-08T07:54:41.380Z,15.01
2017-05-08T07:55:41.684Z,15.21
2017-05-08T07:56:41.369Z,15.46
2017-05-08T07:57:41.366Z,15.5
2017-05-08T07:58:41.661Z,15.78
2017-05-08T07:59:41.352Z,15.96
2017-05-08T08:00:41.656Z,15.96
2017-05-08T08:01:41.344Z,16.07
2017-05-08T08:02:41.645Z,16.23
2017-05-08T08:03:41.872Z,16.27
2017-05-08T08:04:41.639Z,16.27
2017-05-08T08:05:41.331Z,16.31
2017-05-08T08:06:41.627Z,16.23
2017-05-08T08:07:41.629Z,16.25
2017-05-08T08:08:41.317Z,16.2
2017-05-08T08:09:41.617Z,16.2
2017-05-08T08:10:41.616Z,16.07
2017-05-08T08:11:41.308Z,15.94
2017-05-08T08:12:41.610Z,16.01
2017-05-08T08:13:41.599Z,15.83
2017-05-08T08:14:41.597Z,15.72
2017-05-08T08:15:41.595Z,15.69
2017-05-08T08:16:40.980Z,15.57
2017-05-08T08:17:41.283Z,15.56
2017-05-08T08:18:41.278Z,15.54
2017-05-08T08:19:41.276Z,15.39
2017-05-08T08:20:41.271Z,15.25
2017-05-08T08:21:41.262Z,15.21
2017-05-08T08:22:41.264Z,15.17
2017-05-08T08:23:41.257Z,15.14
2017-05-08T08:24:41.254Z,15.06
2017-05-08T08:25:41.552Z,15.01
2017-05-08T08:26:41.547Z,14.96
2017-05-08T08:27:41.243Z,14.88
2017-05-08T08:28:41.236Z,14.94
2017-05-08T08:29:41.229Z,14.88
2017-05-08T08:30:41.229Z,14.83
2017-05-08T08:31:41.219Z,14.8
2017-05-08T08:32:41.214Z,14.83
2017-05-08T08:33:41.211Z,14.68
2017-05-08T08:34:41.506Z,14.69
2017-05-08T08:35:41.201Z,14.55
2017-05-08T08:36:41.199Z,14.55
2017-05-08T08:37:41.191Z,14.57
2017-05-08T08:38:41.186Z,14.52
2017-05-08T08:39:41.481Z,14.52
2017-05-08T08:40:41.187Z,14.47
2017-05-08T08:41:41.170Z,14.43
2017-05-08T08:42:41.163Z,14.35
2017-05-08T08:43:41.461Z,14.24
2017-05-08T08:44:41.156Z,14.24
2017-05-08T08:45:41.148Z,14.21
2017-05-08T08:46:41.147Z,14.2
2017-05-08T08:47:41.454Z,14.04
2017-05-08T08:48:40.828Z,14.15
2017-05-08T08:49:41.430Z,14.07
2017-05-08T08:50:41.134Z,14
2017-05-08T08:51:41.120Z,13.91
2017-05-08T08:52:41.109Z,13.87
2017-05-08T08:53:41.410Z,13.87
2017-05-08T08:54:41.099Z,13.95
2017-05-08T08:55:41.095Z,13.91
2017-05-08T08:56:41.089Z,13.87
2017-05-08T08:57:41.086Z,13.82
2017-05-08T08:58:41.383Z,13.89
2017-05-08T08:59:41.379Z,13.88
2017-05-08T09:00:41.371Z,13.92
2017-05-08T09:01:41.365Z,13.95
2017-05-08T09:02:41.365Z,13.96
2017-05-08T09:03:41.053Z,13.82
2017-05-08T09:04:41.046Z,13.77
2017-05-08T09:05:41.342Z,13.77
2017-05-08T09:06:41.035Z,13.57
2017-05-08T09:07:41.335Z,13.52
2017-05-08T09:08:41.325Z,13.52
2017-05-08T09:09:41.321Z,13.39
2017-05-08T09:10:41.314Z,13.39
2017-05-08T09:11:41.308Z,13.32
2017-05-08T09:12:41.302Z,13.25
2017-05-08T09:13:41.299Z,13.25
2017-05-08T09:14:41.289Z,13.23
2017-05-08T09:15:41.290Z,13.15
2017-05-08T09:16:41.279Z,13.14
2017-05-08T09:17:41.281Z,13.17
2017-05-08T09:18:41.265Z,13.12
2017-05-08T09:19:41.514Z,13.1
2017-05-08T09:20:41.255Z,13.11
2017-05-08T09:21:41.251Z,13.1
2017-05-08T09:22:41.243Z,13.11
2017-05-08T09:23:41.235Z,13.04
2017-05-08T09:24:41.231Z,13
2017-05-08T09:25:41.226Z,12.97
2017-05-08T09:26:41.216Z,13.05
2017-05-08T09:27:41.214Z,13.05
2017-05-08T09:28:41.209Z,13.12
2017-05-08T09:29:40.894Z,13.1
2017-05-08T09:30:41.201Z,13.12
2017-05-08T09:31:41.188Z,13.11
2017-05-08T09:32:41.197Z,13.1
2017-05-08T09:33:41.178Z,13.12
2017-05-08T09:34:41.174Z,13.12
2017-05-08T09:35:40.862Z,13.12
2017-05-08T09:36:41.159Z,13.22
2017-05-08T09:37:41.153Z,13.19
2017-05-08T09:38:41.147Z,13.17
2017-05-08T09:39:41.140Z,13.15
2017-05-08T09:40:41.137Z,13.17
2017-05-08T09:41:41.128Z,13.25
2017-05-08T09:42:41.125Z,13.32
2017-05-08T09:43:41.117Z,13.33
2017-05-08T09:44:41.120Z,13.38
2017-05-08T09:45:40.803Z,13.46
2017-05-08T09:46:41.097Z,13.52
2017-05-08T09:47:41.124Z,13.55
2017-05-08T09:48:41.089Z,13.63
2017-05-08T09:49:41.081Z,13.55
2017-05-08T09:50:41.080Z,13.62
2017-05-08T09:51:41.070Z,13.64
2017-05-08T09:52:41.074Z,13.69
2017-05-08T09:53:41.062Z,13.73
2017-05-08T09:54:41.052Z,13.71
2017-05-08T09:55:41.049Z,13.82
2017-05-08T09:56:41.040Z,13.84
2017-05-08T09:57:41.032Z,13.97
2017-05-08T09:58:41.026Z,14.07
2017-05-08T09:59:41.022Z,14.09
2017-05-08T10:00:41.017Z,14.2
2017-05-08T10:01:40.711Z,14.18
2017-05-08T10:02:41.004Z,14.21
2017-05-08T10:03:41.002Z,14.28
2017-05-08T10:04:40.992Z,14.37
2017-05-08T10:05:40.991Z,14.24
2017-05-08T10:06:40.986Z,14.25
2017-05-08T10:07:40.982Z,14.43
2017-05-08T10:08:40.981Z,14.51
2017-05-08T10:09:40.969Z,14.45
2017-05-08T10:10:40.962Z,14.39
2017-05-08T10:11:40.958Z,14.45
2017-05-08T10:12:40.953Z,14.45
2017-05-08T10:13:40.949Z,14.37
2017-05-08T10:14:40.941Z,14.32
2017-05-08T10:15:40.941Z,14.27
2017-05-08T10:16:40.929Z,14.27
2017-05-08T10:17:40.922Z,14.24
2017-05-08T10:18:40.918Z,14.25
2017-05-08T10:19:40.957Z,14.36
2017-05-08T10:20:40.909Z,14.5
2017-05-08T10:21:40.905Z,14.39
2017-05-08T10:22:40.595Z,14.47
2017-05-08T10:23:40.895Z,14.54
2017-05-08T10:24:40.890Z,14.58
2017-05-08T10:25:40.580Z,14.61
2017-05-08T10:26:40.878Z,14.68
2017-05-08T10:27:40.872Z,14.64
2017-05-08T10:28:40.865Z,14.58
2017-05-08T10:29:40.859Z,14.55
2017-05-08T10:30:40.856Z,14.58
2017-05-08T10:31:40.849Z,14.55
2017-05-08T10:32:40.851Z,14.55
2017-05-08T10:33:40.845Z,14.57
2017-05-08T10:34:40.836Z,14.51
2017-05-08T10:35:40.835Z,14.55
2017-05-08T10:36:40.823Z,14.52
2017-05-08T10:37:40.821Z,14.51
2017-05-08T10:38:40.817Z,14.55
2017-05-08T10:39:40.717Z,14.55
2017-05-08T10:40:40.808Z,14.51
2017-05-08T10:41:40.801Z,14.43
2017-05-08T10:42:40.796Z,14.5
2017-05-08T10:43:40.791Z,14.4
2017-05-08T10:44:40.784Z,14.37
2017-05-08T10:45:40.778Z,14.36
2017-05-08T10:46:40.782Z,14.4
2017-05-08T10:47:40.465Z,14.36
2017-05-08T10:48:40.766Z,14.4
2017-05-08T10:49:40.799Z,14.35
2017-05-08T10:50:40.756Z,14.37
2017-05-08T10:51:40.751Z,14.4
2017-05-08T10:52:40.439Z,14.35
2017-05-08T10:53:40.436Z,14.4
2017-05-08T10:54:40.730Z,14.39
2017-05-08T10:55:40.726Z,14.33
2017-05-08T10:56:40.726Z,14.28
2017-05-08T10:57:40.718Z,14.37
2017-05-08T10:58:40.712Z,14.36
2017-05-08T10:59:40.708Z,14.39
2017-05-08T11:00:40.700Z,14.24
2017-05-08T11:01:40.394Z,14.39
2017-05-08T11:02:40.689Z,14.36
2017-05-08T11:03:40.691Z,14.46
2017-05-08T11:04:40.680Z,14.47
2017-05-08T11:05:40.676Z,14.62
2017-05-08T11:06:40.674Z,14.6
2017-05-08T11:07:40.667Z,14.57
2017-05-08T11:08:40.665Z,14.64
2017-05-08T11:09:40.655Z,14.61
2017-05-08T11:10:40.649Z,14.69
2017-05-08T11:11:40.646Z,14.57
2017-05-08T11:12:40.678Z,14.54
2017-05-08T11:13:40.635Z,14.57
2017-05-08T11:14:40.629Z,14.57
2017-05-08T11:15:40.318Z,14.65
2017-05-08T11:16:40.618Z,14.52
2017-05-08T11:17:40.614Z,14.55
2017-05-08T11:18:40.616Z,14.54
2017-05-08T11:19:40.607Z,14.51
2017-05-08T11:20:40.602Z,14.61
2017-05-08T11:21:40.594Z,14.55
2017-05-08T11:22:40.287Z,14.6
2017-05-08T11:23:39.979Z,14.51
2017-05-08T11:24:40.729Z,14.45
2017-05-08T11:25:40.578Z,14.36
2017-05-08T11:26:40.570Z,14.24
2017-05-08T11:27:40.562Z,14.09
2017-05-08T11:28:40.559Z,14.04
2017-05-08T11:29:40.553Z,13.88
2017-05-08T11:30:40.243Z,13.89
2017-05-08T11:31:40.541Z,13.82
2017-05-08T11:32:40.535Z,13.78
2017-05-08T11:33:40.531Z,13.81
2017-05-08T11:34:40.524Z,13.73
2017-05-08T11:35:40.522Z,13.62
2017-05-08T11:36:40.516Z,13.6
2017-05-08T11:37:40.207Z,13.54
2017-05-08T11:38:40.507Z,13.52
2017-05-08T11:39:40.506Z,13.57
2017-05-08T11:40:40.494Z,13.39
2017-05-08T11:41:40.217Z,13.42
2017-05-08T11:42:40.480Z,13.44
2017-05-08T11:43:40.481Z,13.41
2017-05-08T11:44:40.472Z,13.39
2017-05-08T11:45:40.463Z,13.38
2017-05-08T11:46:40.459Z,13.33
2017-05-08T11:47:40.455Z,13.38
2017-05-08T11:48:40.450Z,13.38
2017-05-08T11:49:40.143Z,13.32
2017-05-08T11:50:40.439Z,13.39
2017-05-08T11:51:40.125Z,13.41
2017-05-08T11:52:40.423Z,13.28
2017-05-08T11:53:40.418Z,13.25
2017-05-08T11:54:40.412Z,13.23
2017-05-08T11:55:40.407Z,13.2
2017-05-08T11:56:40.400Z,13.32
2017-05-08T11:57:40.394Z,13.28
2017-05-08T11:58:40.389Z,13.42
2017-05-08T11:59:40.380Z,13.41
2017-05-08T12:00:40.075Z,13.38
2017-05-08T12:01:40.375Z,13.6
2017-05-08T12:02:40.361Z,13.67
2017-05-08T12:03:40.055Z,13.75
2017-05-08T12:04:40.353Z,13.87
2017-05-08T12:05:40.048Z,14.14
2017-05-08T12:06:40.336Z,14.24
2017-05-08T12:07:40.333Z,14.57
2017-05-08T12:08:40.328Z,14.72
2017-05-08T12:09:40.324Z,14.81
2017-05-08T12:10:40.316Z,14.94
2017-05-08T12:11:40.314Z,15.03
2017-05-08T12:12:40.312Z,15.21
2017-05-08T12:13:40.300Z,15.23
2017-05-08T12:14:39.995Z,15.16
2017-05-08T12:15:40.295Z,15.23
2017-05-08T12:16:40.289Z,15.19
2017-05-08T12:17:40.282Z,15.14
2017-05-08T12:18:40.279Z,15.14
2017-05-08T12:19:39.970Z,15.19
2017-05-08T12:20:40.269Z,15.16
2017-05-08T12:21:40.262Z,15.2
2017-05-08T12:22:40.262Z,15.13
2017-05-08T12:23:40.254Z,15.28
2017-05-08T12:24:40.251Z,15.17
2017-05-08T12:25:39.943Z,15.06
2017-05-08T12:26:40.240Z,15.02
2017-05-08T12:27:39.931Z,14.99
2017-05-08T12:28:40.235Z,14.96
2017-05-08T12:29:40.224Z,14.94
2017-05-08T12:30:40.219Z,14.94
2017-05-08T12:31:40.214Z,14.83
2017-05-08T12:32:39.915Z,14.92
2017-05-08T12:33:39.907Z,14.91
2017-05-08T12:34:39.895Z,14.86
2017-05-08T12:35:40.196Z,14.86
2017-05-08T12:36:40.192Z,15.02
2017-05-08T12:37:40.185Z,14.89
2017-05-08T12:38:39.883Z,14.91
2017-05-08T12:39:39.871Z,14.92
2017-05-08T12:40:40.169Z,14.84
2017-05-08T12:41:39.862Z,14.83
2017-05-08T12:42:39.855Z,14.86
2017-05-08T12:43:39.552Z,14.84
2017-05-08T12:44:39.852Z,14.73
2017-05-08T12:45:39.841Z,14.73
2017-05-08T12:46:40.139Z,14.68
2017-05-08T12:47:40.133Z,14.64
2017-05-08T12:48:40.133Z,14.47
2017-05-08T12:49:40.131Z,14.37
2017-05-08T12:50:40.115Z,14.37
2017-05-08T12:51:40.112Z,14.32
2017-05-08T12:52:40.108Z,14.36
2017-05-08T12:53:40.110Z,14.17
2017-05-08T12:54:40.105Z,14.14
2017-05-08T12:55:39.794Z,14.14